Terminal Aerodrome Forecast
Issued by NWS Sioux Falls, SD

Home | Current Version | Previous Version | Graphics & Text | Print | Product List | Glossary Off
Versions: 1 2 3 4 5 6 7 8 9 10 11 12 13 14 15 16 17 18 19 20 21 22

000
FTUS43 KFSD 140520
TAFFSD
TAF
KFSD 140520Z 1406/1506 16010KT P6SM OVC030
     FM141400 19011KT P6SM BKN017
     FM142000 22011KT 1 1/2SM -SN OVC012
     FM142200 24009KT 4SM -SN OVC015
     FM142300 32014KT P6SM OVC018
     FM150200 33018G29KT P6SM BKN022=

USA.gov is the U.S. government's official web portal to all federal, state and local government web resources and services.